Time;durP1;ratioP1;P1;durP2;ratioP2;P2;SDS_P1;SDS_P2;PMS_P1;PMS_P2;Temp;Humidity;BMP_temperature;BMP_pressure;BME280_temperature;BME280_humidity;BME280_pressure;Samples;Min_cycle;Max_cycle;Signal;HPM_P1;HPM_P2
2021/01/06 00:01:16;;;;;;;17.87;11.83;;;5.60;99.90;;;;;;5092835;28;20257;-61
2021/01/06 00:03:42;;;;;;;15.93;11.23;;;5.50;99.90;;;;;;5092807;28;20608;-61
2021/01/06 00:06:11;;;;;;;18.10;12.30;;;5.50;99.90;;;;;;5093309;28;20204;-63
2021/01/06 00:08:37;;;;;;;16.83;12.33;;;5.40;99.90;;;;;;5092847;28;20661;-61
2021/01/06 00:11:04;;;;;;;17.53;11.37;;;5.40;99.90;;;;;;5080262;28;20221;-59
2021/01/06 00:13:31;;;;;;;15.67;11.30;;;5.40;99.90;;;;;;5071814;28;20213;-61
2021/01/06 00:15:58;;;;;;;14.80;10.90;;;5.40;99.90;;;;;;5072674;28;20631;-61
2021/01/06 00:18:26;;;;;;;14.07;10.57;;;5.50;99.90;;;;;;5072080;28;20205;-60
2021/01/06 00:20:53;;;;;;;16.33;11.30;;;5.60;99.90;;;;;;5071004;28;20244;-61
2021/01/06 00:23:19;;;;;;;15.27;11.43;;;5.60;99.90;;;;;;5072043;28;20487;-62
2021/01/06 00:25:45;;;;;;;16.37;11.73;;;5.50;99.90;;;;;;5071602;28;20211;-62
2021/01/06 00:28:14;;;;;;;15.07;11.63;;;5.60;99.90;;;;;;5071597;28;20228;-63
2021/01/06 00:30:45;;;;;;;15.40;11.67;;;5.50;99.90;;;;;;5072001;28;20236;-62
2021/01/06 00:33:13;;;;;;;15.93;11.30;;;5.50;99.90;;;;;;5072120;28;20455;-61
2021/01/06 00:35:39;;;;;;;15.53;10.90;;;5.30;99.90;;;;;;5071386;28;20216;-62
2021/01/06 00:38:06;;;;;;;14.63;11.17;;;5.30;99.90;;;;;;5071663;28;20201;-61
2021/01/06 00:40:35;;;;;;;16.83;11.00;;;5.20;99.90;;;;;;5072410;28;20244;-60
2021/01/06 00:43:03;;;;;;;16.43;11.70;;;5.20;99.90;;;;;;5074434;28;20585;-61
2021/01/06 00:45:29;;;;;;;14.20;11.13;;;5.30;99.90;;;;;;5073503;28;20212;-60
2021/01/06 00:47:56;;;;;;;13.73;10.83;;;5.20;99.90;;;;;;5072216;28;20575;-61
2021/01/06 00:50:25;;;;;;;13.87;10.67;;;5.10;99.90;;;;;;5071720;28;20739;-60
2021/01/06 00:52:51;;;;;;;17.10;11.67;;;5.10;99.90;;;;;;5071692;28;20209;-60
2021/01/06 00:55:18;;;;;;;16.50;10.93;;;5.10;99.90;;;;;;5071907;28;20212;-61
2021/01/06 00:57:44;;;;;;;15.00;11.43;;;5.00;99.90;;;;;;5070739;28;20208;-62
2021/01/06 01:00:17;;;;;;;15.50;11.10;;;5.00;99.90;;;;;;5070948;28;20712;-61
2021/01/06 01:02:49;;;;;;;16.53;11.67;;;5.10;99.90;;;;;;5078613;28;20682;-60
2021/01/06 01:05:16;;;;;;;16.60;11.63;;;5.10;99.90;;;;;;5091536;28;20415;-61
2021/01/06 01:07:42;;;;;;;15.60;11.43;;;5.10;99.90;;;;;;5082043;28;20221;-63
2021/01/06 01:10:09;;;;;;;16.40;11.10;;;5.20;99.90;;;;;;5071377;28;20244;-62
2021/01/06 01:12:35;;;;;;;16.87;11.17;;;5.20;99.90;;;;;;5087717;28;20675;-62
2021/01/06 01:15:01;;;;;;;16.20;11.33;;;5.20;99.90;;;;;;5091237;28;20690;-62
2021/01/06 01:17:27;;;;;;;17.30;11.67;;;5.20;99.90;;;;;;5091679;28;20215;-63
2021/01/06 01:19:53;;;;;;;17.07;11.60;;;5.10;99.90;;;;;;5078247;28;20201;-61
2021/01/06 01:22:20;;;;;;;16.67;11.30;;;5.10;99.90;;;;;;5070963;28;20197;-61
2021/01/06 01:24:47;;;;;;;14.70;10.70;;;5.10;99.90;;;;;;5070538;28;20205;-62
2021/01/06 01:27:13;;;;;;;16.03;11.73;;;5.10;99.90;;;;;;5071164;28;20250;-61
2021/01/06 01:29:39;;;;;;;15.37;11.93;;;5.10;99.90;;;;;;5070567;28;20719;-62
2021/01/06 01:32:06;;;;;;;17.67;11.97;;;5.10;99.90;;;;;;5070442;28;20695;-62
2021/01/06 01:34:33;;;;;;;17.23;11.50;;;5.00;99.90;;;;;;5070741;28;20216;-62
2021/01/06 01:36:59;;;;;;;15.53;11.10;;;4.80;99.90;;;;;;5071186;28;20258;-62
2021/01/06 01:39:26;;;;;;;15.33;11.13;;;4.80;99.90;;;;;;5071027;28;20197;-62
2021/01/06 01:41:57;;;;;;;18.77;12.23;;;4.80;99.90;;;;;;5070861;28;20640;-62
2021/01/06 01:44:23;;;;;;;15.77;11.50;;;4.80;99.90;;;;;;5070957;28;20299;-62
2021/01/06 01:47:03;;;;;;;16.10;11.90;;;4.80;99.90;;;;;;5071686;28;20201;-62
2021/01/06 01:49:39;;;;;;;15.03;12.00;;;4.70;99.90;;;;;;5071396;28;20211;-62
2021/01/06 01:52:17;;;;;;;18.27;12.07;;;4.80;99.90;;;;;;5071290;28;20212;-62
2021/01/06 01:54:45;;;;;;;19.77;12.83;;;4.80;99.90;;;;;;5070891;28;20212;-62
2021/01/06 01:57:16;;;;;;;19.40;12.53;;;4.90;99.90;;;;;;5070744;28;20200;-63
2021/01/06 01:59:50;;;;;;;15.77;12.17;;;5.00;99.90;;;;;;5070408;28;20208;-62
2021/01/06 02:02:25;;;;;;;16.10;12.17;;;5.10;99.90;;;;;;5070874;28;20267;-62
2021/01/06 02:04:55;;;;;;;17.33;12.87;;;5.10;99.90;;;;;;5070555;28;20215;-63
2021/01/06 02:07:25;;;;;;;16.87;12.47;;;5.10;99.90;;;;;;5070692;28;20208;-62
2021/01/06 02:09:57;;;;;;;18.57;12.40;;;5.00;99.90;;;;;;5070143;28;20224;-62
2021/01/06 02:12:30;;;;;;;17.60;12.80;;;5.00;99.90;;;;;;5070665;28;20204;-63
2021/01/06 02:15:05;;;;;;;16.73;11.70;;;4.90;99.90;;;;;;5070352;28;20216;-63
2021/01/06 02:17:32;;;;;;;16.03;11.87;;;4.90;99.90;;;;;;5070680;28;20394;-63
2021/01/06 02:19:58;;;;;;;16.63;12.27;;;4.90;99.90;;;;;;5070179;28;20600;-62
2021/01/06 02:22:25;;;;;;;17.83;12.50;;;4.80;99.90;;;;;;5070486;28;20204;-62
2021/01/06 02:24:52;;;;;;;16.90;12.80;;;4.80;99.90;;;;;;5070078;28;20750;-63
2021/01/06 02:27:20;;;;;;;16.93;11.67;;;4.80;99.90;;;;;;5070494;28;20204;-63
2021/01/06 02:29:47;;;;;;;16.00;11.83;;;4.70;99.90;;;;;;5070207;28;20270;-62
2021/01/06 02:32:14;;;;;;;15.60;11.63;;;4.70;99.90;;;;;;5070428;28;20235;-62
2021/01/06 02:34:41;;;;;;;18.03;12.17;;;4.80;99.90;;;;;;5069958;28;20200;-63
2021/01/06 02:37:08;;;;;;;16.83;12.00;;;4.90;99.90;;;;;;5070218;28;20585;-63
2021/01/06 02:39:36;;;;;;;14.37;11.13;;;5.00;99.90;;;;;;5069997;28;20209;-63
2021/01/06 02:42:02;;;;;;;16.90;11.13;;;4.90;99.90;;;;;;5070343;28;20221;-63
2021/01/06 02:44:30;;;;;;;13.93;10.67;;;4.90;99.90;;;;;;5073827;28;20236;-62
2021/01/06 02:46:57;;;;;;;17.23;11.20;;;4.80;99.90;;;;;;5074105;28;20208;-62
2021/01/06 02:49:25;;;;;;;15.53;11.43;;;4.80;99.90;;;;;;5073790;28;20236;-63
2021/01/06 02:51:55;;;;;;;17.23;11.37;;;4.80;99.90;;;;;;5073794;28;20232;-63
2021/01/06 02:54:28;;;;;;;16.23;11.43;;;4.70;99.90;;;;;;5073842;28;20205;-62
2021/01/06 02:56:59;;;;;;;15.90;10.63;;;4.70;99.90;;;;;;5074054;28;20209;-62
2021/01/06 02:59:30;;;;;;;16.67;10.87;;;4.60;99.90;;;;;;5073860;28;20197;-62
2021/01/06 03:01:58;;;;;;;15.30;11.00;;;4.50;99.90;;;;;;5074110;28;20228;-63
2021/01/06 03:04:27;;;;;;;14.27;11.10;;;4.60;99.90;;;;;;5073618;28;20201;-62
2021/01/06 03:06:57;;;;;;;16.03;10.80;;;4.70;99.90;;;;;;5074009;28;20254;-62
2021/01/06 03:09:30;;;;;;;13.60;10.97;;;4.90;99.90;;;;;;5073679;28;20638;-63
2021/01/06 03:12:00;;;;;;;13.27;10.50;;;5.00;99.90;;;;;;5073515;28;20247;-63
2021/01/06 03:14:27;;;;;;;16.37;11.83;;;5.20;99.90;;;;;;5073203;28;20263;-63
2021/01/06 03:16:55;;;;;;;16.73;11.83;;;5.30;99.90;;;;;;5073559;28;20201;-62
2021/01/06 03:19:25;;;;;;;16.73;11.93;;;5.40;99.90;;;;;;5073421;28;20219;-63
2021/01/06 03:21:53;;;;;;;14.53;11.00;;;5.50;99.90;;;;;;5073449;28;20290;-63
2021/01/06 03:24:23;;;;;;;15.23;11.23;;;5.60;99.90;;;;;;5073462;28;20201;-63
2021/01/06 03:26:51;;;;;;;13.97;10.43;;;5.60;99.90;;;;;;5073243;28;20241;-62
2021/01/06 03:29:19;;;;;;;15.13;10.40;;;5.70;99.90;;;;;;5072983;28;20201;-63
2021/01/06 03:31:48;;;;;;;13.70;10.10;;;5.60;99.90;;;;;;5073243;28;20727;-63
2021/01/06 03:34:20;;;;;;;13.20;10.00;;;5.50;99.90;;;;;;5073047;28;20589;-63
2021/01/06 03:36:52;;;;;;;14.57;9.87;;;5.30;99.90;;;;;;5073273;28;20216;-63
2021/01/06 03:39:24;;;;;;;13.37;9.33;;;5.20;99.90;;;;;;5072961;28;20266;-62
2021/01/06 03:41:51;;;;;;;11.63;8.83;;;5.10;99.90;;;;;;5073442;28;20224;-62
2021/01/06 03:44:19;;;;;;;12.30;9.47;;;5.10;99.90;;;;;;5072977;28;20204;-63
2021/01/06 03:46:47;;;;;;;12.33;9.43;;;5.20;99.90;;;;;;5073229;28;20224;-62
2021/01/06 03:49:31;;;;;;;13.83;9.00;;;5.30;99.90;;;;;;5072599;28;20205;-64
2021/01/06 03:52:05;;;;;;;12.67;9.27;;;5.40;99.90;;;;;;5073148;28;20228;-62
2021/01/06 03:54:37;;;;;;;13.50;8.90;;;5.40;99.90;;;;;;5072476;28;20208;-62
2021/01/06 03:57:05;;;;;;;18.07;11.77;;;5.40;99.90;;;;;;5073135;28;20212;-63
2021/01/06 03:59:35;;;;;;;12.27;8.90;;;5.40;99.90;;;;;;5073091;28;20275;-62
2021/01/06 04:02:08;;;;;;;12.33;9.33;;;5.40;99.90;;;;;;5072817;28;20231;-62
2021/01/06 04:04:37;;;;;;;13.13;9.70;;;5.40;99.90;;;;;;5072593;28;20209;-63
2021/01/06 04:07:05;;;;;;;11.23;8.23;;;5.40;99.90;;;;;;5073219;28;20620;-63
2021/01/06 04:09:37;;;;;;;13.50;8.90;;;5.50;99.90;;;;;;5072620;28;20225;-62
2021/01/06 04:12:07;;;;;;;12.33;9.13;;;5.40;99.90;;;;;;5072815;28;20224;-62
2021/01/06 04:14:35;;;;;;;12.63;9.37;;;5.40;99.90;;;;;;5072341;28;20228;-62
2021/01/06 04:17:15;;;;;;;10.93;8.47;;;5.40;99.90;;;;;;5072338;28;20201;-62
2021/01/06 04:19:45;;;;;;;11.17;8.37;;;5.30;99.90;;;;;;5072319;28;20204;-63
2021/01/06 04:22:11;;;;;;;12.97;9.43;;;5.30;99.90;;;;;;5072452;28;20208;-64
2021/01/06 04:24:37;;;;;;;12.50;8.67;;;5.20;99.90;;;;;;5071934;28;20208;-63
2021/01/06 04:27:04;;;;;;;11.90;8.63;;;5.20;99.90;;;;;;5072049;28;20215;-63
2021/01/06 04:29:30;;;;;;;11.77;8.73;;;5.20;99.90;;;;;;5071661;28;20768;-63
2021/01/06 04:31:57;;;;;;;12.27;8.50;;;5.30;99.90;;;;;;5071914;28;20229;-63
2021/01/06 04:34:23;;;;;;;10.33;8.47;;;5.40;99.90;;;;;;5071803;28;20209;-62
2021/01/06 04:36:50;;;;;;;12.53;8.90;;;5.40;99.90;;;;;;5072084;28;20201;-63
2021/01/06 04:39:16;;;;;;;11.10;8.27;;;5.50;99.90;;;;;;5071940;28;20572;-63
2021/01/06 04:41:50;;;;;;;12.67;8.17;;;5.60;99.90;;;;;;5072265;28;20314;-63
2021/01/06 04:44:41;;;;;;;13.97;8.50;;;5.60;99.90;;;;;;5071624;28;20205;-63
2021/01/06 04:47:41;;;;;;;10.93;8.30;;;5.70;99.90;;;;;;5071966;28;20205;-63
2021/01/06 04:50:46;;;;;;;10.23;7.83;;;5.70;99.90;;;;;;5046329;28;20605;-62
2021/01/06 04:53:19;;;;;;;10.83;8.03;;;5.70;99.90;;;;;;5053700;28;20216;-64
2021/01/06 04:55:56;;;;;;;12.30;8.87;;;5.60;99.90;;;;;;5071647;28;20220;-63
2021/01/06 04:58:31;;;;;;;12.80;8.33;;;5.50;99.90;;;;;;5071690;28;20597;-63
2021/01/06 05:01:05;;;;;;;13.10;9.00;;;5.50;99.90;;;;;;5071520;28;20224;-63
2021/01/06 05:04:11;;;;;;;13.03;9.00;;;5.50;99.90;;;;;;5071382;28;20201;-63
2021/01/06 05:06:49;;;;;;;11.43;8.57;;;5.50;99.90;;;;;;5071032;28;20208;-63
2021/01/06 05:09:21;;;;;;;12.50;8.60;;;5.50;99.90;;;;;;5071521;28;20205;-63
2021/01/06 05:11:57;;;;;;;12.43;8.87;;;5.50;99.90;;;;;;5071390;28;20225;-62
2021/01/06 05:14:30;;;;;;;13.00;8.93;;;5.50;99.90;;;;;;5071639;28;20726;-63
2021/01/06 05:16:57;;;;;;;12.27;8.80;;;5.50;99.90;;;;;;5071968;28;20232;-62
2021/01/06 05:19:28;;;;;;;12.27;9.03;;;5.50;99.90;;;;;;5071391;28;20205;-63
2021/01/06 05:21:55;;;;;;;13.07;9.00;;;5.60;99.90;;;;;;5071132;28;20267;-62
2021/01/06 05:24:26;;;;;;;15.10;9.33;;;5.60;99.90;;;;;;5071127;28;20569;-62
2021/01/06 05:27:01;;;;;;;12.73;9.33;;;5.60;99.90;;;;;;5071161;28;20205;-62
2021/01/06 05:29:29;;;;;;;11.23;8.47;;;5.60;99.90;;;;;;5071243;28;20211;-62
2021/01/06 05:31:56;;;;;;;12.60;8.97;;;5.50;99.90;;;;;;5071054;28;20662;-62
2021/01/06 05:34:25;;;;;;;15.30;10.03;;;5.40;99.90;;;;;;5070525;28;20580;-62
2021/01/06 05:36:52;;;;;;;14.93;10.03;;;5.40;99.90;;;;;;5071189;28;20250;-62
2021/01/06 05:39:24;;;;;;;18.77;10.60;;;5.40;99.90;;;;;;5070899;28;20212;-62
2021/01/06 05:41:53;;;;;;;16.83;12.23;;;5.30;99.90;;;;;;5070812;28;20236;-62
2021/01/06 05:44:19;;;;;;;13.57;9.73;;;5.30;99.90;;;;;;5070717;28;20584;-62
2021/01/06 05:46:47;;;;;;;16.17;10.33;;;5.30;99.90;;;;;;5070876;28;20278;-62
2021/01/06 05:49:21;;;;;;;16.60;10.00;;;5.30;99.90;;;;;;5070766;28;20201;-62
2021/01/06 05:51:56;;;;;;;14.73;9.47;;;5.30;99.90;;;;;;5070722;28;20225;-62
2021/01/06 05:54:35;;;;;;;15.63;10.27;;;5.40;99.90;;;;;;5070945;28;20193;-62
2021/01/06 05:57:12;;;;;;;14.10;9.27;;;5.50;99.90;;;;;;5070766;28;20205;-62
2021/01/06 06:00:09;;;;;;;14.10;9.77;;;5.50;99.90;;;;;;5070509;28;20216;-62
2021/01/06 06:02:42;;;;;;;12.47;9.07;;;5.40;99.90;;;;;;5070966;28;20192;-62
2021/01/06 06:05:35;;;;;;;15.00;9.77;;;5.40;99.90;;;;;;5070664;28;20623;-62
2021/01/06 06:08:16;;;;;;;13.10;9.17;;;5.40;99.90;;;;;;5070497;28;20225;-62
2021/01/06 06:10:57;;;;;;;12.57;9.07;;;5.20;99.90;;;;;;5070669;28;20228;-62
2021/01/06 06:13:53;;;;;;;13.47;9.37;;;5.10;99.90;;;;;;5070423;28;20624;-63
2021/01/06 06:16:45;;;;;;;12.33;8.63;;;5.10;99.90;;;;;;5071085;28;20236;-62
2021/01/06 06:19:29;;;;;;;11.07;8.73;;;5.10;99.90;;;;;;5074393;28;20692;-62
2021/01/06 06:22:08;;;;;;;11.70;8.97;;;5.00;99.90;;;;;;5074296;28;20237;-62
2021/01/06 06:24:44;;;;;;;15.03;9.97;;;4.90;99.90;;;;;;5074590;28;20208;-62
2021/01/06 06:27:39;;;;;;;12.23;9.33;;;4.90;99.90;;;;;;5074458;28;20212;-62
2021/01/06 06:30:37;;;;;;;13.33;9.03;;;4.90;99.90;;;;;;5074222;28;20703;-63
2021/01/06 06:33:19;;;;;;;11.83;8.10;;;4.90;99.90;;;;;;5074868;28;20189;-63
2021/01/06 06:35:49;;;;;;;12.83;9.53;;;5.00;99.90;;;;;;5074589;28;20192;-63
2021/01/06 06:38:16;;;;;;;11.13;8.30;;;5.00;99.90;;;;;;5074327;28;20209;-63
2021/01/06 06:41:00;;;;;;;11.03;9.03;;;5.00;99.90;;;;;;5074330;28;20221;-63
2021/01/06 06:43:36;;;;;;;11.77;9.10;;;5.00;99.90;;;;;;5074280;28;20274;-63
2021/01/06 06:46:26;;;;;;;12.30;9.47;;;5.10;99.90;;;;;;5074254;28;20212;-63
2021/01/06 06:49:06;;;;;;;14.63;10.23;;;5.20;99.90;;;;;;5066807;28;20236;-63
2021/01/06 06:51:40;;;;;;;11.80;9.47;;;5.30;99.90;;;;;;5073792;28;20735;-63
2021/01/06 06:54:13;;;;;;;12.77;9.50;;;5.30;99.90;;;;;;5073854;28;20209;-63
2021/01/06 06:56:47;;;;;;;12.17;8.83;;;5.20;99.90;;;;;;5073966;28;20209;-63
2021/01/06 06:59:19;;;;;;;11.93;9.37;;;5.00;99.90;;;;;;5073740;28;20209;-63
2021/01/06 07:01:47;;;;;;;12.50;9.17;;;5.00;99.90;;;;;;5073724;28;20225;-63
2021/01/06 07:04:19;;;;;;;13.77;9.20;;;5.00;99.90;;;;;;5073650;28;20216;-63
2021/01/06 07:06:54;;;;;;;9.83;8.13;;;5.10;99.90;;;;;;5073959;28;20196;-63
2021/01/06 07:09:26;;;;;;;12.17;8.67;;;5.20;99.90;;;;;;5073550;28;20250;-63
2021/01/06 07:12:00;;;;;;;12.67;9.23;;;5.30;99.90;;;;;;5073605;28;20264;-63
2021/01/06 07:14:30;;;;;;;12.33;9.10;;;5.40;99.90;;;;;;5073550;28;20222;-62
2021/01/06 07:17:15;;;;;;;11.43;8.23;;;5.20;99.90;;;;;;5073787;28;20228;-62
2021/01/06 07:19:56;;;;;;;11.57;8.20;;;5.10;99.90;;;;;;5073223;28;20205;-63
2021/01/06 07:22:29;;;;;;;11.70;9.00;;;5.10;99.90;;;;;;5073488;28;20693;-63
2021/01/06 07:25:01;;;;;;;11.87;8.57;;;5.00;99.90;;;;;;5073326;28;20208;-63
2021/01/06 07:27:31;;;;;;;10.70;7.97;;;5.00;99.90;;;;;;5073469;28;20575;-63
2021/01/06 07:29:57;;;;;;;9.87;7.47;;;4.90;99.90;;;;;;5072425;28;20648;-63
2021/01/06 07:32:34;;;;;;;10.33;8.13;;;4.80;99.90;;;;;;5073407;28;20205;-63
2021/01/06 07:35:02;;;;;;;9.83;7.60;;;4.70;99.90;;;;;;5073030;28;20283;-62
2021/01/06 07:37:34;;;;;;;13.67;9.03;;;4.70;99.90;;;;;;5073688;28;20205;-63
2021/01/06 07:40:05;;;;;;;11.20;8.63;;;4.50;99.90;;;;;;5073727;28;20580;-63
2021/01/06 07:42:37;;;;;;;9.60;7.83;;;4.50;99.90;;;;;;5073393;28;20270;-63
2021/01/06 07:45:29;;;;;;;13.67;8.80;;;4.60;99.90;;;;;;5073272;28;20213;-62
2021/01/06 07:48:34;;;;;;;11.53;8.43;;;4.70;99.90;;;;;;5073139;28;20208;-63
2021/01/06 07:51:10;;;;;;;13.87;10.70;;;4.90;99.90;;;;;;5046269;28;20232;-62
2021/01/06 07:53:41;;;;;;;11.03;7.90;;;5.10;99.90;;;;;;5073117;28;20213;-62
2021/01/06 07:56:19;;;;;;;8.20;7.07;;;5.10;99.90;;;;;;5073155;28;20212;-62
2021/01/06 07:58:54;;;;;;;10.93;8.07;;;5.20;99.90;;;;;;5072938;28;20620;-62
2021/01/06 08:01:31;;;;;;;7.70;6.70;;;5.10;99.90;;;;;;5073338;28;20224;-63
2021/01/06 08:04:02;;;;;;;11.93;8.67;;;5.00;99.90;;;;;;5072823;28;20209;-62
2021/01/06 08:06:40;;;;;;;8.40;6.57;;;4.90;99.90;;;;;;5072729;28;20209;-62
2021/01/06 08:09:06;;;;;;;9.33;7.10;;;4.80;99.90;;;;;;5072625;28;20266;-63
2021/01/06 08:11:45;;;;;;;9.80;7.60;;;4.80;99.90;;;;;;5072727;28;20233;-62
2021/01/06 08:14:22;;;;;;;11.10;7.67;;;4.80;99.90;;;;;;5072356;28;20236;-62
2021/01/06 08:16:51;;;;;;;10.57;7.37;;;4.80;99.90;;;;;;5072378;28;20200;-62
2021/01/06 08:19:21;;;;;;;9.23;7.53;;;4.80;99.90;;;;;;5072569;28;20235;-62
2021/01/06 08:21:53;;;;;;;8.97;6.70;;;4.80;99.90;;;;;;5071972;28;20256;-62
2021/01/06 08:24:29;;;;;;;7.27;6.03;;;4.80;99.90;;;;;;5072201;28;20201;-62
2021/01/06 08:26:58;;;;;;;8.60;6.50;;;4.70;99.90;;;;;;5072255;28;20208;-62
2021/01/06 08:29:27;;;;;;;8.63;6.43;;;4.70;99.90;;;;;;5071928;28;20201;-62
2021/01/06 08:31:55;;;;;;;10.30;8.13;;;4.70;99.90;;;;;;5072315;28;20286;-62
2021/01/06 08:34:28;;;;;;;17.80;10.47;;;4.80;99.90;;;;;;5072083;28;20232;-62
2021/01/06 08:37:01;;;;;;;8.37;5.97;;;4.90;99.90;;;;;;5072247;28;20209;-62
2021/01/06 08:39:29;;;;;;;8.87;6.70;;;5.10;99.90;;;;;;5071699;28;20205;-62
2021/01/06 08:41:58;;;;;;;8.27;5.67;;;5.10;99.90;;;;;;5071330;28;20228;-63
2021/01/06 08:44:34;;;;;;;7.33;5.83;;;5.10;99.90;;;;;;5072064;28;20208;-62
2021/01/06 08:47:03;;;;;;;8.73;5.70;;;5.10;99.90;;;;;;5071983;28;20254;-62
2021/01/06 08:49:31;;;;;;;7.77;5.97;;;5.10;99.90;;;;;;5071474;28;20209;-62
2021/01/06 08:52:18;;;;;;;7.37;6.13;;;5.10;99.90;;;;;;5071859;28;20228;-63
2021/01/06 08:54:46;;;;;;;7.80;6.17;;;5.10;99.90;;;;;;5071764;28;20201;-62
2021/01/06 08:57:21;;;;;;;9.77;6.77;;;5.20;99.90;;;;;;5071802;28;20205;-62
2021/01/06 08:59:48;;;;;;;7.47;5.53;;;5.30;99.90;;;;;;5071419;28;20205;-62
2021/01/06 09:02:29;;;;;;;6.40;5.70;;;5.40;99.90;;;;;;5108827;27;20523;-62
2021/01/06 09:04:56;;;;;;;11.37;7.93;;;5.60;99.90;;;;;;5108776;28;20210;-62
2021/01/06 09:07:25;;;;;;;7.77;5.90;;;5.60;99.90;;;;;;5108620;28;20204;-62
2021/01/06 09:10:16;;;;;;;7.17;5.87;;;5.70;99.90;;;;;;5108254;28;20647;-62
2021/01/06 09:13:00;;;;;;;6.13;5.20;;;5.70;99.90;;;;;;5093402;28;20218;-62
2021/01/06 09:15:40;;;;;;;7.57;5.57;;;5.60;99.90;;;;;;5089938;22;20325;-64
2021/01/06 09:18:14;;;;;;;7.27;5.40;;;5.50;99.90;;;;;;5047457;28;20217;-64
2021/01/06 09:21:01;;;;;;;6.70;5.30;;;5.40;99.90;;;;;;5047566;28;20585;-64
2021/01/06 09:23:28;;;;;;;6.50;5.40;;;5.40;99.90;;;;;;5047179;28;20213;-64
2021/01/06 09:25:54;;;;;;;6.07;5.37;;;5.50;99.90;;;;;;5047682;28;20234;-64
2021/01/06 09:28:21;;;;;;;7.23;5.87;;;5.50;99.90;;;;;;5047342;28;20296;-64
2021/01/06 09:30:48;;;;;;;7.40;5.70;;;5.60;99.90;;;;;;5047468;28;20217;-64
2021/01/06 09:33:21;;;;;;;8.37;5.63;;;5.60;99.90;;;;;;5047391;28;20217;-64
2021/01/06 09:35:47;;;;;;;6.97;5.50;;;5.70;99.90;;;;;;5047161;28;20260;-65
2021/01/06 09:38:24;;;;;;;6.30;5.40;;;5.80;99.90;;;;;;5047457;28;20206;-63
2021/01/06 09:40:52;;;;;;;6.73;5.60;;;5.80;99.90;;;;;;5047405;28;20320;-64
2021/01/06 09:43:27;;;;;;;8.70;7.50;;;5.90;99.90;;;;;;5047319;28;20626;-63
2021/01/06 09:45:54;;;;;;;7.87;5.73;;;5.90;99.90;;;;;;5047124;28;20237;-62
2021/01/06 09:48:22;;;;;;;6.70;5.60;;;6.00;99.90;;;;;;5046638;28;20206;-62
2021/01/06 09:50:52;;;;;;;6.23;5.53;;;6.10;99.90;;;;;;5047186;28;20259;-62
2021/01/06 09:53:22;;;;;;;9.10;7.40;;;6.20;99.90;;;;;;5047165;28;20260;-62
2021/01/06 09:55:51;;;;;;;8.90;5.87;;;6.20;99.90;;;;;;5046910;28;20276;-62
2021/01/06 09:58:27;;;;;;;9.93;6.70;;;6.30;99.90;;;;;;5046698;28;20209;-62
2021/01/06 10:01:00;;;;;;;5.87;5.27;;;6.40;99.90;;;;;;5046693;28;20692;-62
2021/01/06 10:03:31;;;;;;;8.03;6.13;;;6.50;99.90;;;;;;5046807;28;20213;-63
2021/01/06 10:06:09;;;;;;;10.67;5.67;;;6.40;99.90;;;;;;5046812;28;20230;-63
2021/01/06 10:08:44;;;;;;;5.67;4.87;;;6.50;99.90;;;;;;5046987;28;20224;-63
2021/01/06 10:11:25;;;;;;;12.00;8.33;;;6.50;99.90;;;;;;5046919;28;20201;-63
2021/01/06 10:14:03;;;;;;;6.37;5.70;;;6.60;99.90;;;;;;5032617;28;20292;-62
2021/01/06 10:16:34;;;;;;;9.93;6.57;;;6.60;99.90;;;;;;5033313;28;20296;-64
2021/01/06 10:19:16;;;;;;;10.43;6.73;;;6.50;99.90;;;;;;5033145;28;20213;-63
2021/01/06 10:21:53;;;;;;;6.37;5.63;;;6.50;99.90;;;;;;5033172;28;20238;-63
2021/01/06 10:24:41;;;;;;;8.30;5.70;;;6.50;99.90;;;;;;5032819;28;20739;-64
2021/01/06 10:27:23;;;;;;;8.30;5.90;;;6.60;99.90;;;;;;5033284;28;20271;-63
2021/01/06 10:29:51;;;;;;;8.20;6.23;;;6.60;99.90;;;;;;5032770;28;20202;-63
2021/01/06 10:32:37;;;;;;;11.80;7.33;;;6.60;99.90;;;;;;5032881;28;20202;-63
2021/01/06 10:35:24;;;;;;;10.03;6.40;;;6.60;99.90;;;;;;5032827;28;20226;-62
2021/01/06 10:37:50;;;;;;;6.87;5.97;;;6.50;99.90;;;;;;5032705;28;20210;-62
2021/01/06 10:40:20;;;;;;;13.73;9.60;;;6.50;99.90;;;;;;5032618;28;20252;-63
2021/01/06 10:42:48;;;;;;;8.13;6.43;;;6.50;99.90;;;;;;5032891;28;20238;-63
2021/01/06 10:45:44;;;;;;;8.27;6.63;;;6.50;99.90;;;;;;5032640;28;20226;-62
2021/01/06 10:48:41;;;;;;;8.20;6.47;;;6.50;99.90;;;;;;5032484;28;20206;-62
2021/01/06 10:51:07;;;;;;;7.13;5.60;;;6.50;99.90;;;;;;5032880;28;20217;-63
2021/01/06 10:53:40;;;;;;;8.97;6.17;;;6.60;99.90;;;;;;5032547;28;20206;-62
2021/01/06 10:56:09;;;;;;;7.43;6.07;;;6.60;99.90;;;;;;5032605;28;20226;-62
2021/01/06 10:58:42;;;;;;;8.70;5.97;;;6.70;99.90;;;;;;5032190;28;20662;-62
2021/01/06 11:01:34;;;;;;;8.40;6.60;;;6.80;99.90;;;;;;5032401;28;20226;-62
2021/01/06 11:04:23;;;;;;;7.03;5.70;;;6.80;99.90;;;;;;5032221;28;20280;-63
2021/01/06 11:06:57;;;;;;;6.47;5.87;;;6.80;99.90;;;;;;5030121;28;20217;-63
2021/01/06 11:09:47;;;;;;;9.63;6.00;;;6.80;99.90;;;;;;5032330;28;20213;-62
2021/01/06 11:12:36;;;;;;;9.37;6.67;;;6.80;99.90;;;;;;5032774;28;20205;-63
2021/01/06 11:15:13;;;;;;;7.93;6.20;;;6.80;99.90;;;;;;5021777;28;20238;-62
2021/01/06 11:17:42;;;;;;;9.20;7.20;;;6.90;99.90;;;;;;5032439;28;20213;-62
2021/01/06 11:20:30;;;;;;;72.17;55.57;;;6.90;99.90;;;;;;5032398;28;20206;-62
2021/01/06 11:23:22;;;;;;;7.00;6.23;;;6.80;99.90;;;;;;5033678;28;20209;-63
2021/01/06 11:25:51;;;;;;;8.13;6.37;;;6.80;99.90;;;;;;5032375;28;20226;-62
2021/01/06 11:28:31;;;;;;;9.97;6.40;;;6.80;99.90;;;;;;5032165;28;20424;-60
2021/01/06 11:31:21;;;;;;;6.33;5.67;;;6.90;99.90;;;;;;5032887;28;20210;-63
2021/01/06 11:33:49;;;;;;;5.93;5.27;;;6.90;99.90;;;;;;5033602;28;20286;-61
2021/01/06 11:36:30;;;;;;;9.17;7.30;;;6.90;99.90;;;;;;5034455;28;20209;-62
2021/01/06 11:38:59;;;;;;;6.67;5.90;;;6.90;99.90;;;;;;5034338;28;20210;-61
2021/01/06 11:41:59;;;;;;;7.83;5.53;;;7.00;99.90;;;;;;5032449;28;20222;-62
2021/01/06 11:44:32;;;;;;;9.97;8.37;;;7.00;99.90;;;;;;4971007;28;20232;-62
2021/01/06 11:47:24;;;;;;;6.80;5.67;;;7.00;99.90;;;;;;5021512;28;20252;-61
2021/01/06 11:50:26;;;;;;;9.33;7.00;;;7.00;99.90;;;;;;5032143;28;20290;-62
2021/01/06 11:53:08;;;;;;;13.67;9.97;;;7.10;99.90;;;;;;5032133;28;20248;-62
2021/01/06 11:55:45;;;;;;;9.77;7.63;;;7.10;99.90;;;;;;5031822;28;20273;-62
2021/01/06 11:58:19;;;;;;;9.27;7.40;;;7.20;99.90;;;;;;5032266;28;20271;-61
2021/01/06 12:01:08;;;;;;;7.87;6.30;;;7.30;99.90;;;;;;5032787;28;20315;-61
2021/01/06 12:03:59;;;;;;;7.17;6.37;;;7.30;99.90;;;;;;5032055;28;20214;-62
2021/01/06 12:06:39;;;;;;;11.83;9.33;;;7.30;99.90;;;;;;5032069;28;20666;-61
2021/01/06 12:09:20;;;;;;;7.93;6.63;;;7.30;99.90;;;;;;5032232;28;20224;-61
2021/01/06 12:11:57;;;;;;;12.57;7.03;;;7.40;99.90;;;;;;5031910;28;20202;-62
2021/01/06 12:14:32;;;;;;;9.17;6.93;;;7.30;99.90;;;;;;5032111;28;20264;-62
2021/01/06 12:17:14;;;;;;;10.73;7.57;;;7.30;99.90;;;;;;5032706;28;20677;-62
2021/01/06 12:19:52;;;;;;;9.77;6.93;;;7.30;99.90;;;;;;5033143;28;20237;-61
2021/01/06 12:22:20;;;;;;;12.73;8.87;;;7.30;99.90;;;;;;5033536;28;20225;-61
2021/01/06 12:24:56;;;;;;;11.37;7.90;;;7.30;99.90;;;;;;5033384;28;20578;-62
2021/01/06 12:27:56;;;;;;;8.53;7.00;;;7.30;99.90;;;;;;5033105;28;20213;-61
2021/01/06 12:30:37;;;;;;;7.73;6.23;;;7.30;99.90;;;;;;5032472;28;20689;-61
2021/01/06 12:33:31;;;;;;;10.67;6.93;;;7.30;99.90;;;;;;5032008;28;20237;-61
2021/01/06 12:36:11;;;;;;;7.87;6.30;;;7.30;99.90;;;;;;5031296;28;20229;-62
2021/01/06 12:38:37;;;;;;;11.00;6.60;;;6.90;99.90;;;;;;5031173;28;20217;-62
2021/01/06 12:41:12;;;;;;;9.23;7.20;;;7.30;99.90;;;;;;5030977;28;20225;-62
2021/01/06 12:43:41;;;;;;;10.73;6.90;;;7.30;99.90;;;;;;5031093;28;20218;-62
2021/01/06 12:46:20;;;;;;;10.87;7.33;;;7.30;99.90;;;;;;5031132;28;20439;-63
2021/01/06 12:48:57;;;;;;;8.80;6.83;;;7.30;99.90;;;;;;5030940;28;20289;-62
2021/01/06 12:51:26;;;;;;;8.43;7.23;;;7.30;99.90;;;;;;5031037;28;20198;-62
2021/01/06 12:53:56;;;;;;;10.00;7.30;;;7.30;99.90;;;;;;5031317;28;20206;-62
2021/01/06 12:56:32;;;;;;;8.27;6.83;;;7.30;99.90;;;;;;5031740;28;20206;-61
2021/01/06 12:59:11;;;;;;;8.03;6.73;;;7.30;99.90;;;;;;5031431;28;20210;-61
2021/01/06 13:01:49;;;;;;;7.50;6.73;;;7.30;99.90;;;;;;5030966;28;20261;-61
2021/01/06 13:04:19;;;;;;;6.83;6.13;;;7.20;99.90;;;;;;5030641;28;20222;-61
2021/01/06 13:06:55;;;;;;;7.27;6.10;;;7.20;99.90;;;;;;5030904;28;20445;-61
2021/01/06 13:09:35;;;;;;;7.90;6.30;;;7.20;99.90;;;;;;5030673;28;20206;-61
2021/01/06 13:12:19;;;;;;;10.67;7.30;;;7.20;99.90;;;;;;5030847;28;20208;-60
2021/01/06 13:14:50;;;;;;;8.73;6.50;;;7.20;99.90;;;;;;5030751;28;20782;-61
2021/01/06 13:17:27;;;;;;;8.53;6.83;;;7.20;99.90;;;;;;5031210;28;20233;-62
2021/01/06 13:20:27;;;;;;;7.27;6.43;;;7.20;99.90;;;;;;5030236;28;20628;-61
2021/01/06 13:23:02;;;;;;;15.37;12.20;;;7.10;99.90;;;;;;5030774;28;20550;-62